Time;durP1;ratioP1;P1;durP2;ratioP2;P2;SDS_P1;SDS_P2;PMS_P1;PMS_P2;Temp;Humidity;BMP_temperature;BMP_pressure;BME280_temperature;BME280_humidity;BME280_pressure;Samples;Min_cycle;Max_cycle;Signal;HPM_P1;HPM_P2
2022/04/15 00:00:36;;;;;;;27.75;17.65;;;;;;;9.23;78.92;102271.13;5026195;28;20422;-86
2022/04/15 00:03:02;;;;;;;24.30;17.05;;;;;;;9.17;79.43;102268.63;5023783;28;20025;-86
2022/04/15 00:05:36;;;;;;;24.23;16.58;;;;;;;9.16;79.51;102273.06;5024479;28;20446;-85
2022/04/15 00:08:05;;;;;;;26.25;16.60;;;;;;;9.10;79.39;102267.00;5022592;28;20387;-85
2022/04/15 00:10:31;;;;;;;23.27;17.15;;;;;;;9.05;79.55;102266.22;5009767;28;20025;-85
2022/04/15 00:12:57;;;;;;;27.05;17.48;;;;;;;9.02;80.05;102275.13;5023954;28;20037;-86
2022/04/15 00:15:23;;;;;;;25.48;17.20;;;;;;;8.94;79.96;102264.66;5024394;28;20445;-86
2022/04/15 00:17:48;;;;;;;22.80;15.95;;;;;;;8.90;79.63;102263.00;5025926;28;20037;-85
2022/04/15 00:20:14;;;;;;;25.48;15.82;;;;;;;8.90;79.75;102263.00;5009477;28;20112;-84
2022/04/15 00:22:40;;;;;;;23.48;16.25;;;;;;;8.85;79.68;102261.34;5019816;28;20026;-85
2022/04/15 00:25:07;;;;;;;23.52;15.93;;;;;;;8.85;80.36;102274.63;5023830;28;20022;-84
2022/04/15 00:27:32;;;;;;;23.13;16.55;;;;;;;8.80;81.16;102271.19;5015327;28;20057;-84
2022/04/15 00:29:57;;;;;;;26.60;15.80;;;;;;;8.77;80.86;102274.75;5011708;28;20484;-84
2022/04/15 00:32:23;;;;;;;27.52;16.05;;;;;;;8.68;80.74;102272.31;5022952;28;20072;-85
2022/04/15 00:34:48;;;;;;;22.95;16.42;;;;;;;8.56;80.93;102273.41;5019604;28;20033;-84
2022/04/15 00:37:14;;;;;;;26.15;15.52;;;;;;;8.55;81.42;102278.75;5021502;28;20026;-84
2022/04/15 00:39:45;;;;;;;26.05;15.90;;;;;;;8.49;81.79;102277.13;5024248;28;20041;-84
2022/04/15 00:42:10;;;;;;;28.17;17.10;;;;;;;8.48;82.09;102280.66;5010872;28;20033;-85
2022/04/15 00:44:36;;;;;;;25.20;16.42;;;;;;;8.43;82.09;102270.13;5025005;28;20029;-84
2022/04/15 00:47:07;;;;;;;24.35;16.75;;;;;;;8.52;81.66;102282.34;5017782;28;20029;-84
2022/04/15 00:49:32;;;;;;;24.63;15.43;;;;;;;8.46;81.79;102283.34;5021096;28;20045;-84
2022/04/15 00:51:57;;;;;;;23.02;16.33;;;;;;;8.45;81.53;102286.91;5011098;28;20103;-86
2022/04/15 00:54:28;;;;;;;24.55;15.98;;;;;;;8.42;81.45;102281.66;5010853;28;20053;-84
2022/04/15 00:56:54;;;;;;;26.35;16.58;;;;;;;8.39;81.17;102287.00;5026298;28;20059;-84
2022/04/15 00:59:21;;;;;;;23.13;16.58;;;;;;;8.37;81.51;102288.84;5018458;28;20042;-84
2022/04/15 01:01:47;;;;;;;22.30;16.00;;;;;;;8.35;81.40;102301.19;5025126;28;20033;-84
2022/04/15 01:04:13;;;;;;;21.92;16.02;;;;;;;8.32;81.57;102303.03;5018343;28;20053;-84
2022/04/15 01:06:39;;;;;;;25.20;16.58;;;;;;;8.29;81.55;102303.97;5017227;28;20048;-84
2022/04/15 01:09:05;;;;;;;24.15;16.42;;;;;;;8.21;81.70;102300.59;5028876;28;20395;-84
2022/04/15 01:11:33;;;;;;;24.20;16.10;;;;;;;8.18;81.69;102301.50;5018703;28;20029;-84
2022/04/15 01:14:00;;;;;;;25.73;16.13;;;;;;;8.10;81.49;102291.94;5022457;28;20114;-85
2022/04/15 01:16:27;;;;;;;26.70;16.83;;;;;;;8.13;81.67;102299.84;5027287;28;20026;-85
2022/04/15 01:18:52;;;;;;;24.45;15.85;;;;;;;8.05;81.56;102289.38;5018581;28;20178;-84
2022/04/15 01:21:18;;;;;;;27.58;17.42;;;;;;;8.05;82.14;102307.06;5019053;28;20030;-84
2022/04/15 01:23:44;;;;;;;24.17;16.65;;;;;;;7.98;82.00;102304.53;5022356;28;20502;-84
2022/04/15 01:26:09;;;;;;;26.70;16.13;;;;;;;7.96;82.02;102301.00;5018585;28;20109;-84
2022/04/15 01:28:35;;;;;;;28.40;16.60;;;;;;;7.94;82.43;102307.22;5020293;28;20040;-84
2022/04/15 01:31:00;;;;;;;26.30;15.93;;;;;;;7.91;82.35;102307.28;5029980;28;20025;-84
2022/04/15 01:33:25;;;;;;;22.73;16.15;;;;;;;7.89;82.31;102312.59;5025009;28;20073;-85
2022/04/15 01:35:50;;;;;;;22.90;15.40;;;;;;;7.83;82.15;102314.50;5023919;28;20033;-85
2022/04/15 01:38:17;;;;;;;23.73;15.73;;;;;;;7.79;82.63;102307.50;5017930;28;20049;-85
2022/04/15 01:40:43;;;;;;;24.52;15.98;;;;;;;7.75;82.68;102309.31;5024277;28;20525;-84
2022/04/15 01:43:10;;;;;;;27.05;16.67;;;;;;;7.70;82.95;102309.38;5022723;28;20098;-85
2022/04/15 01:45:35;;;;;;;24.35;16.60;;;;;;;7.70;82.83;102316.47;5017684;28;20117;-85
2022/04/15 01:48:01;;;;;;;24.17;15.75;;;;;;;7.66;82.51;102312.13;5011309;28;20121;-85
2022/04/15 01:50:28;;;;;;;22.80;15.85;;;;;;;7.62;82.37;102318.34;5026890;28;20021;-85
2022/04/15 01:52:53;;;;;;;23.83;15.55;;;;;;;7.57;82.76;102318.44;5024023;28;20033;-85
2022/04/15 01:55:18;;;;;;;22.13;15.80;;;;;;;7.56;83.03;102319.31;5010143;28;20052;-85
2022/04/15 01:57:45;;;;;;;22.38;16.15;;;;;;;7.52;83.05;102316.72;5023420;28;20075;-85
2022/04/15 02:00:10;;;;;;;23.70;16.95;;;;;;;7.51;82.83;102317.63;5011216;28;20034;-85
2022/04/15 02:02:36;;;;;;;21.55;15.90;;;;;;;7.39;83.33;102311.59;5025699;28;20482;-84
2022/04/15 02:05:01;;;;;;;25.05;16.38;;;;;;;7.42;83.54;102319.50;5016502;28;20120;-84
2022/04/15 02:07:27;;;;;;;26.00;16.90;;;;;;;7.35;82.98;102315.19;5026004;28;20059;-84
2022/04/15 02:09:52;;;;;;;24.02;16.33;;;;;;;7.39;83.18;102327.50;5012030;28;20018;-85
2022/04/15 02:12:17;;;;;;;25.60;16.15;;;;;;;7.32;83.08;102324.97;5024793;28;20378;-85
2022/04/15 02:14:42;;;;;;;24.52;16.23;;;;;;;7.31;83.16;102324.06;5015618;28;20342;-85
2022/04/15 02:17:08;;;;;;;25.38;16.45;;;;;;;7.32;83.26;102325.84;5019710;28;20018;-85
2022/04/15 02:19:33;;;;;;;24.63;16.88;;;;;;;7.29;83.15;102331.19;5021301;28;20124;-85
2022/04/15 02:21:58;;;;;;;23.00;16.13;;;;;;;7.31;83.40;102333.78;5013458;28;20038;-84
2022/04/15 02:24:23;;;;;;;27.85;17.25;;;;;;;7.23;83.59;102323.28;5025601;28;20033;-85
2022/04/15 02:26:49;;;;;;;28.30;18.83;;;;;;;7.22;83.88;102333.03;5022320;28;20026;-84
2022/04/15 02:29:14;;;;;;;24.75;17.48;;;;;;;7.20;84.29;102340.13;5027087;28;20037;-84
2022/04/15 02:31:39;;;;;;;27.65;17.92;;;;;;;7.15;84.49;102330.50;5026950;28;20095;-84
2022/04/15 02:34:04;;;;;;;28.67;19.02;;;;;;;7.09;84.15;102330.56;5027371;28;20080;-84
2022/04/15 02:36:30;;;;;;;29.15;19.30;;;;;;;7.13;84.64;102349.03;5012951;28;20100;-85
2022/04/15 02:38:55;;;;;;;28.60;19.00;;;;;;;7.11;85.18;102344.66;5027525;28;20206;-85
2022/04/15 02:41:20;;;;;;;28.88;18.70;;;;;;;7.08;85.63;102345.56;5018638;28;20018;-85
2022/04/15 02:43:46;;;;;;;27.40;18.48;;;;;;;7.04;85.82;102343.84;5010857;28;20407;-85
2022/04/15 02:46:12;;;;;;;29.50;18.65;;;;;;;7.05;85.76;102353.53;5025178;28;20065;-85
2022/04/15 02:48:38;;;;;;;29.92;18.00;;;;;;;7.03;86.49;102351.84;5012772;28;20647;-85
2022/04/15 02:51:04;;;;;;;29.38;18.67;;;;;;;7.04;86.01;102349.16;5028001;28;20037;-85
2022/04/15 02:53:30;;;;;;;33.08;19.33;;;;;;;7.07;86.72;102351.78;5023397;28;20080;-83
2022/04/15 02:55:57;;;;;;;33.92;20.67;;;;;;;7.04;86.58;102349.16;5013417;28;20037;-85
2022/04/15 02:58:22;;;;;;;28.80;18.88;;;;;;;6.99;86.15;102349.22;5027454;28;20032;-85
2022/04/15 03:00:48;;;;;;;27.98;19.05;;;;;;;6.99;86.36;102346.56;5022143;28;20029;-84
2022/04/15 03:03:13;;;;;;;30.10;19.55;;;;;;;6.98;86.47;102339.53;5015286;28;20033;-84
2022/04/15 03:05:39;;;;;;;33.72;19.45;;;;;;;6.95;86.42;102339.56;5015113;28;20505;-84
2022/04/15 03:08:05;;;;;;;31.52;18.98;;;;;;;6.98;86.07;102346.56;5021323;28;20407;-85
2022/04/15 03:10:30;;;;;;;29.95;19.70;;;;;;;6.93;86.16;102337.81;5028434;28;20060;-85
2022/04/15 03:12:56;;;;;;;28.33;18.50;;;;;;;6.91;86.13;102339.59;5018725;28;20526;-84
2022/04/15 03:15:21;;;;;;;32.47;18.95;;;;;;;6.88;86.19;102345.81;5015681;28;20032;-85
2022/04/15 03:17:46;;;;;;;28.63;18.27;;;;;;;6.87;86.42;102340.53;5026225;28;20036;-84
2022/04/15 03:20:13;;;;;;;31.60;19.27;;;;;;;6.77;86.26;102336.22;5011943;28;20029;-85
2022/04/15 03:22:43;;;;;;;31.25;18.35;;;;;;;6.78;86.42;102341.53;5022035;28;20033;-85
2022/04/15 03:25:11;;;;;;;30.40;20.13;;;;;;;6.76;86.59;102340.66;5021741;28;20488;-84
2022/04/15 03:27:37;;;;;;;31.23;18.88;;;;;;;6.75;86.13;102352.13;5018615;28;20037;-85
2022/04/15 03:30:03;;;;;;;28.83;19.83;;;;;;;6.72;86.27;102342.44;5017480;28;20272;-85
2022/04/15 03:32:29;;;;;;;30.58;18.70;;;;;;;6.69;85.96;102337.22;5016719;28;20030;-85
2022/04/15 03:34:55;;;;;;;32.28;20.45;;;;;;;6.72;86.07;102353.03;5013755;28;20034;-85
2022/04/15 03:37:21;;;;;;;32.47;20.60;;;;;;;6.71;86.68;102347.78;5018400;28;20030;-85
2022/04/15 03:39:47;;;;;;;32.33;20.90;;;;;;;6.70;86.88;102349.53;5021166;28;20045;-85
2022/04/15 03:42:12;;;;;;;34.42;21.15;;;;;;;6.70;87.35;102359.25;5012376;28;20029;-85
2022/04/15 03:44:37;;;;;;;34.17;21.58;;;;;;;6.69;88.14;102354.84;5011956;28;20017;-85
2022/04/15 03:47:04;;;;;;;36.03;23.00;;;;;;;6.69;88.52;102357.50;5020191;28;20575;-84
2022/04/15 03:49:29;;;;;;;41.72;23.17;;;;;;;6.63;89.10;102355.78;5021112;28;20479;-84
2022/04/15 03:51:54;;;;;;;43.08;25.65;;;;;;;6.68;90.59;102359.25;5016438;28;20032;-84
2022/04/15 03:54:20;;;;;;;37.20;24.40;;;;;;;6.66;89.93;102352.25;5009601;28;20453;-84
2022/04/15 03:56:46;;;;;;;41.22;23.70;;;;;;;6.65;90.59;102361.94;5020407;28;20036;-85
2022/04/15 03:59:12;;;;;;;43.25;24.98;;;;;;;6.63;91.32;102362.84;5008546;28;20038;-84
2022/04/15 04:01:37;;;;;;;40.38;24.25;;;;;;;6.57;91.78;102366.44;5006997;28;20397;-84
2022/04/15 04:04:03;;;;;;;43.00;26.35;;;;;;;6.58;91.91;102367.31;5009799;28;20100;-84
2022/04/15 04:06:28;;;;;;;43.42;26.48;;;;;;;6.59;92.16;102366.41;5007431;28;20171;-85
2022/04/15 04:08:53;;;;;;;42.72;26.02;;;;;;;6.55;92.33;102375.28;5005956;28;20029;-85
2022/04/15 04:11:19;;;;;;;42.42;26.48;;;;;;;6.53;92.88;102372.66;5012573;28;20033;-85
2022/04/15 04:13:45;;;;;;;43.83;25.90;;;;;;;6.49;93.60;102366.50;5011717;28;20038;-85
2022/04/15 04:16:14;;;;;;;41.80;25.52;;;;;;;6.49;93.69;102365.63;5014822;28;20499;-85
2022/04/15 04:18:40;;;;;;;45.25;27.13;;;;;;;6.51;94.29;102368.25;5009377;28;20121;-85
2022/04/15 04:21:06;;;;;;;45.63;27.23;;;;;;;6.46;94.89;102370.94;5009079;28;20068;-85
2022/04/15 04:23:31;;;;;;;44.03;27.20;;;;;;;6.46;95.35;102363.88;5005751;28;20475;-85
2022/04/15 04:25:56;;;;;;;48.33;27.25;;;;;;;6.55;95.51;102370.84;5017935;28;20423;-85
2022/04/15 04:28:21;;;;;;;44.92;27.67;;;;;;;6.58;95.85;102375.25;5018245;28;20048;-85
2022/04/15 04:30:47;;;;;;;48.47;28.00;;;;;;;6.63;95.78;102378.72;5018423;28;20038;-85
2022/04/15 04:33:12;;;;;;;82.93;29.30;;;;;;;6.58;96.46;102376.13;5020949;28;20037;-86
2022/04/15 04:35:38;;;;;;;55.25;28.27;;;;;;;6.63;96.28;102381.38;5014265;28;20501;-85
2022/04/15 04:38:05;;;;;;;71.43;26.63;;;;;;;6.66;96.56;102384.88;5022338;28;20459;-85
2022/04/15 04:40:30;;;;;;;69.50;28.05;;;;;;;6.66;96.48;102392.81;5019955;28;20091;-85
2022/04/15 04:42:56;;;;;;;101.05;29.85;;;;;;;6.65;96.98;102396.34;5024214;28;20524;-85
2022/04/15 04:45:21;;;;;;;83.90;27.13;;;;;;;6.64;96.93;102399.84;5030064;28;20112;-85
2022/04/15 04:47:47;;;;;;;69.65;26.55;;;;;;;6.57;97.00;102397.31;5022850;28;20041;-85
2022/04/15 04:50:12;;;;;;;65.47;24.35;;;;;;;6.56;96.95;102404.34;5027166;28;20514;-85
2022/04/15 04:52:39;;;;;;;61.70;23.75;;;;;;;6.53;97.12;102417.63;5016213;28;20160;-85
2022/04/15 04:55:06;;;;;;;67.18;25.00;;;;;;;6.48;97.39;102422.09;5017887;28;20042;-85
2022/04/15 04:57:31;;;;;;;68.30;25.90;;;;;;;6.47;97.59;102422.94;5020313;28;20064;-85
2022/04/15 04:59:57;;;;;;;65.05;24.35;;;;;;;6.49;97.68;102427.34;5024184;28;20466;-85
2022/04/15 05:02:23;;;;;;;67.00;25.70;;;;;;;6.47;98.16;102425.59;5022808;28;20068;-85
2022/04/15 05:04:48;;;;;;;72.88;23.98;;;;;;;6.46;98.06;102424.72;5030319;28;20017;-85
2022/04/15 05:07:14;;;;;;;43.10;25.00;;;;;;;6.48;98.48;102432.66;5021336;28;20164;-84
2022/04/15 05:09:43;;;;;;;63.08;24.42;;;;;;;6.51;98.38;102437.03;5022841;28;20070;-85
2022/04/15 05:12:11;;;;;;;55.42;24.38;;;;;;;6.46;98.71;102435.31;5023428;28;20079;-85
2022/04/15 05:14:37;;;;;;;42.53;25.25;;;;;;;6.56;98.70;102445.78;5024519;28;20072;-85
2022/04/15 05:17:02;;;;;;;48.35;25.05;;;;;;;6.57;98.59;102443.16;5018489;28;20057;-85
2022/04/15 05:19:28;;;;;;;46.60;24.73;;;;;;;6.62;98.66;102448.41;5029167;28;20026;-85
2022/04/15 05:21:53;;;;;;;42.85;23.98;;;;;;;6.61;98.46;102451.94;5017993;28;20064;-85
2022/04/15 05:24:18;;;;;;;37.67;21.95;;;;;;;6.60;97.91;102456.34;5027096;28;20033;-85
2022/04/15 05:26:44;;;;;;;41.97;22.70;;;;;;;6.65;97.52;102462.50;5016555;28;20121;-85
2022/04/15 05:29:09;;;;;;;33.92;20.92;;;;;;;6.62;97.29;102448.41;5020836;28;20057;-85
2022/04/15 05:31:35;;;;;;;44.28;20.60;;;;;;;6.66;97.40;102474.81;5019597;28;20243;-85
2022/04/15 05:34:01;;;;;;;46.80;19.60;;;;;;;6.63;97.51;102468.69;5016278;28;20041;-86
2022/04/15 05:36:26;;;;;;;34.38;20.38;;;;;;;6.66;97.66;102474.81;5026295;28;20335;-85
2022/04/15 05:38:51;;;;;;;51.08;21.08;;;;;;;6.58;97.63;102470.50;5026583;28;20022;-85
2022/04/15 05:41:17;;;;;;;36.33;20.25;;;;;;;6.69;97.93;102487.16;5027004;28;20033;-85
2022/04/15 05:43:43;;;;;;;35.65;20.20;;;;;;;6.70;97.64;102492.44;5028565;28;20049;-85
2022/04/15 05:46:08;;;;;;;34.80;19.05;;;;;;;6.68;97.44;102490.66;5018612;28;20044;-85
2022/04/15 05:48:34;;;;;;;33.05;19.85;;;;;;;6.70;97.59;102499.50;5021998;28;20529;-85
2022/04/15 05:50:59;;;;;;;35.78;19.55;;;;;;;6.66;97.62;102500.41;5027905;28;20478;-86
2022/04/15 05:53:24;;;;;;;32.42;20.25;;;;;;;6.63;97.89;102495.13;5028094;28;20036;-84
2022/04/15 05:55:50;;;;;;;31.42;20.30;;;;;;;6.68;97.68;102510.06;5026074;28;20045;-85
2022/04/15 05:58:15;;;;;;;31.25;19.85;;;;;;;6.70;97.98;102505.66;5028920;28;20454;-85
2022/04/15 06:00:40;;;;;;;30.17;16.60;;;;;;;6.66;96.71;102516.28;5016474;28;20115;-87
2022/04/15 06:03:09;;;;;;;36.33;15.38;;;;;;;6.53;96.39;102519.91;5023321;28;20482;-86
2022/04/15 06:05:34;;;;;;;22.50;14.35;;;;;;;6.49;96.71;102509.34;5021808;28;20040;-86
2022/04/15 06:07:59;;;;;;;24.38;14.35;;;;;;;6.49;96.83;102529.63;5022429;28;20029;-87
2022/04/15 06:10:24;;;;;;;34.95;14.90;;;;;;;6.44;96.64;102526.16;5023793;28;20025;-88
2022/04/15 06:15:51;;;;;;;32.45;14.85;;;;;;;6.43;97.08;102535.81;5002170;28;20044;-88
2022/04/15 06:18:21;;;;;;;24.23;14.82;;;;;;;6.41;97.52;102531.47;5006563;28;20041;-87
2022/04/15 06:20:47;;;;;;;20.85;14.48;;;;;;;6.52;97.57;102541.94;5000322;28;20343;-87
2022/04/15 06:23:14;;;;;;;20.35;14.27;;;;;;;6.56;97.80;102548.97;4997044;28;20042;-87
2022/04/15 06:25:39;;;;;;;27.30;15.80;;;;;;;6.55;97.26;102539.28;4996308;28;20443;-87
2022/04/15 06:28:05;;;;;;;25.08;14.88;;;;;;;6.58;97.54;102545.44;5004128;28;20033;-87
2022/04/15 06:30:30;;;;;;;23.55;14.82;;;;;;;6.65;97.66;102538.34;4999882;28;20043;-87
2022/04/15 06:32:55;;;;;;;22.25;15.27;;;;;;;6.72;97.51;102542.69;4997149;28;20479;-88
2022/04/15 06:35:21;;;;;;;24.02;15.25;;;;;;;6.76;97.50;102543.53;5003388;28;20030;-87
2022/04/15 06:37:46;;;;;;;27.50;16.17;;;;;;;6.81;97.42;102550.53;5001271;28;20042;-87
2022/04/15 06:40:12;;;;;;;25.27;15.07;;;;;;;6.88;97.77;102557.56;5002769;28;20038;-88
2022/04/15 06:42:37;;;;;;;25.65;15.73;;;;;;;6.95;97.58;102561.03;5001727;28;20046;-88
2022/04/15 06:45:03;;;;;;;25.58;16.40;;;;;;;6.98;96.92;102563.63;5000823;28;20030;-89
2022/04/15 06:47:28;;;;;;;25.15;16.00;;;;;;;6.91;97.40;102560.19;4969998;28;20064;-89
2022/04/15 06:49:53;;;;;;;24.92;16.05;;;;;;;6.98;97.36;102561.91;5016527;28;20176;-90
2022/04/15 06:52:19;;;;;;;27.17;16.67;;;;;;;7.09;97.33;102568.84;5024198;28;20030;-89
2022/04/15 06:54:44;;;;;;;25.15;15.77;;;;;;;7.10;96.42;102567.97;5026665;28;20515;-89
2022/04/15 06:57:10;;;;;;;22.02;14.80;;;;;;;7.12;96.78;102568.84;5027569;28;20033;-89
2022/04/15 06:59:35;;;;;;;28.38;16.67;;;;;;;7.09;96.93;102558.25;5023665;28;20234;-89
2022/04/15 07:02:01;;;;;;;23.15;15.23;;;;;;;7.17;96.38;102567.88;5022594;28;20112;-89
2022/04/15 07:04:27;;;;;;;21.50;14.63;;;;;;;7.22;96.23;102566.06;5025651;28;20018;-89
2022/04/15 07:06:53;;;;;;;24.80;14.95;;;;;;;7.25;96.00;102578.41;5021681;28;20029;-92
2022/04/15 07:09:18;;;;;;;22.48;14.32;;;;;;;7.23;95.93;102577.53;5024150;28;20028;-86
2022/04/15 07:11:44;;;;;;;25.88;16.05;;;;;;;7.19;96.38;102575.81;5025723;28;20025;-86
2022/04/15 07:14:09;;;;;;;24.92;15.82;;;;;;;7.15;96.28;102580.28;5024688;28;20108;-86
2022/04/15 07:16:34;;;;;;;24.30;15.35;;;;;;;7.15;96.76;102576.75;5019361;28;20041;-86
2022/04/15 07:19:04;;;;;;;26.38;14.98;;;;;;;7.21;96.49;102588.16;5009915;28;20030;-86
2022/04/15 07:21:39;;;;;;;21.83;14.32;;;;;;;7.25;96.44;102591.66;5022418;28;20422;-86
2022/04/15 07:24:06;;;;;;;21.92;14.20;;;;;;;7.34;96.41;102588.03;5027135;28;20033;-86
2022/04/15 07:26:32;;;;;;;24.30;14.20;;;;;;;7.40;95.79;102591.53;5010997;28;20395;-86
2022/04/15 07:28:57;;;;;;;22.63;14.43;;;;;;;7.40;95.82;102588.88;5026199;28;20025;-86
2022/04/15 07:31:24;;;;;;;21.02;13.90;;;;;;;7.45;95.17;102586.19;5022193;28;20037;-86
2022/04/15 07:33:50;;;;;;;24.70;14.93;;;;;;;7.45;95.52;102595.00;5025388;28;20033;-86
2022/04/15 07:38:59;;;;;;;22.20;13.85;;;;;;;7.60;94.56;102595.72;5025394;28;20387;-87
2022/04/15 07:41:25;;;;;;;22.50;14.25;;;;;;;7.62;94.40;102597.47;5016811;28;20487;-87
2022/04/15 07:43:50;;;;;;;24.40;15.68;;;;;;;7.64;94.27;102595.69;5022675;28;20036;-86
2022/04/15 07:46:16;;;;;;;23.27;15.02;;;;;;;7.76;94.56;102604.41;5022115;28;20028;-86
2022/04/15 07:48:41;;;;;;;23.67;15.43;;;;;;;7.76;94.15;102602.63;5021590;28;20111;-86
2022/04/15 07:51:07;;;;;;;26.52;15.85;;;;;;;7.81;93.84;102603.44;5015919;28;20033;-86
2022/04/15 07:53:32;;;;;;;21.67;15.80;;;;;;;7.80;94.04;102596.38;5025550;28;22295;-86
2022/04/15 07:55:57;;;;;;;28.65;17.45;;;;;;;7.79;93.30;102594.66;5027684;28;20116;-86
2022/04/15 07:58:22;;;;;;;25.77;16.23;;;;;;;7.92;93.55;102603.34;5022186;28;20034;-86
2022/04/15 08:00:49;;;;;;;23.25;14.98;;;;;;;7.93;93.33;102603.31;5012644;28;20025;-87
2022/04/15 08:03:15;;;;;;;22.50;14.90;;;;;;;8.05;92.63;102607.59;5023003;28;20028;-87
2022/04/15 08:05:40;;;;;;;22.92;15.63;;;;;;;8.08;92.53;102601.38;5019372;28;20021;-86
2022/04/15 08:08:06;;;;;;;25.20;15.68;;;;;;;8.66;92.97;102603.28;5024371;28;20083;-87
2022/04/15 08:10:31;;;;;;;25.55;15.82;;;;;;;10.16;87.83;102613.88;4998317;28;20041;-90
2022/04/15 08:12:56;;;;;;;20.70;12.98;;;;;;;11.15;80.52;102594.75;5014889;28;20024;-85
2022/04/15 08:15:21;;;;;;;17.70;12.93;;;;;;;11.79;77.31;102598.38;5018924;28;20448;-86
2022/04/15 08:17:47;;;;;;;17.05;12.23;;;;;;;12.00;73.11;102598.69;5013753;28;20554;-86
2022/04/15 08:20:14;;;;;;;16.55;9.73;;;;;;;11.99;71.27;102600.50;5022383;28;20046;-86
2022/04/15 08:22:40;;;;;;;15.13;10.70;;;;;;;11.74;70.34;102600.28;5012560;28;20013;-86
2022/04/15 08:25:06;;;;;;;13.50;10.43;;;;;;;11.46;71.55;102605.50;5026281;28;20064;-86
2022/04/15 08:27:31;;;;;;;14.48;10.88;;;;;;;11.31;71.80;102598.78;5014124;28;20038;-86
2022/04/15 08:29:56;;;;;;;14.73;10.32;;;;;;;11.06;71.65;102597.66;5020947;28;21372;-86
2022/04/15 08:32:22;;;;;;;17.05;10.95;;;;;;;10.80;72.13;102596.50;5021673;28;20029;-85
2022/04/15 08:34:47;;;;;;;14.98;11.20;;;;;;;10.94;72.55;102594.34;5013140;28;20026;-87
2022/04/15 08:37:13;;;;;;;15.20;10.05;;;;;;;11.44;70.60;102605.53;5027350;28;20026;-88
2022/04/15 08:39:39;;;;;;;13.77;10.25;;;;;;;11.59;68.45;102601.59;5024105;28;20022;-88
2022/04/15 08:42:07;;;;;;;15.30;11.15;;;;;;;11.41;68.75;102612.72;5010680;28;20036;-87
2022/04/15 08:44:32;;;;;;;16.55;11.63;;;;;;;11.29;69.19;102616.59;5025146;28;20475;-86
2022/04/15 08:47:01;;;;;;;16.83;11.07;;;;;;;11.20;69.31;102612.38;5021525;28;20044;-85
2022/04/15 08:49:26;;;;;;;13.82;10.52;;;;;;;11.13;68.39;102612.56;5017136;28;20034;-85
2022/04/15 08:51:51;;;;;;;15.63;10.48;;;;;;;11.16;69.38;102613.38;5025475;28;20376;-85
2022/04/15 08:54:18;;;;;;;13.98;10.60;;;;;;;11.15;69.27;102614.28;5024056;28;20501;-85
2022/04/15 08:56:43;;;;;;;14.38;10.93;;;;;;;11.46;68.32;102611.72;5012327;28;20108;-86
2022/04/15 08:59:09;;;;;;;14.13;10.80;;;;;;;11.79;67.35;102619.72;5016499;28;20045;-86
2022/04/15 09:01:34;;;;;;;15.77;11.57;;;;;;;11.71;67.17;102621.72;5016366;28;20030;-85
2022/04/15 09:04:00;;;;;;;16.67;11.05;;;;;;;12.20;67.62;102621.22;5021789;28;20065;-86
2022/04/15 09:06:30;;;;;;;15.25;11.43;;;;;;;13.56;63.71;102618.66;5019688;28;20403;-82
2022/04/15 09:09:08;;;;;;;17.02;11.30;;;;;;;14.39;60.64;102624.53;5023833;28;20069;-87
2022/04/15 09:11:36;;;;;;;13.25;10.23;;;;;;;14.33;58.72;102629.22;5023895;28;20646;-87
2022/04/15 09:14:07;;;;;;;14.48;10.38;;;;;;;14.07;58.71;102640.94;5021740;28;20152;-87
2022/04/15 09:16:37;;;;;;;15.23;10.48;;;;;;;14.17;59.98;102642.31;5020350;28;20026;-87
2022/04/15 09:19:02;;;;;;;13.50;10.55;;;;;;;15.34;56.46;102628.75;5025638;28;20079;-87
2022/04/15 09:21:28;;;;;;;13.90;11.05;;;;;;;16.05;54.02;102628.34;5024865;28;20437;-87
2022/04/15 09:23:55;;;;;;;14.20;10.10;;;;;;;16.30;51.68;102642.41;5011455;28;20022;-88
2022/04/15 09:26:22;;;;;;;13.80;9.75;;;;;;;15.86;51.69;102639.06;5023752;28;20030;-88
2022/04/15 09:28:48;;;;;;;13.13;9.20;;;;;;;15.71;53.53;102635.22;5020738;28;20029;-87
2022/04/15 09:31:15;;;;;;;11.60;8.90;;;;;;;16.71;50.97;102634.19;5018571;28;20026;-88
2022/04/15 09:33:57;;;;;;;12.68;9.43;;;;;;;18.87;49.44;102639.03;5022388;28;20022;-88
2022/04/15 09:36:35;;;;;;;12.10;9.73;;;;;;;19.07;44.29;102636.06;5026211;28;20479;-91
2022/04/15 09:39:16;;;;;;;11.32;8.38;;;;;;;18.35;45.97;102648.22;5002107;28;20132;-89
2022/04/15 09:41:50;;;;;;;11.95;8.52;;;;;;;17.32;47.93;102647.34;5027912;28;20479;-87
2022/04/15 09:44:15;;;;;;;13.23;8.98;;;;;;;16.44;48.97;102650.69;5026048;28;20509;-87
2022/04/15 09:46:46;;;;;;;12.00;9.07;;;;;;;16.10;50.62;102650.53;5023683;28;20025;-86
2022/04/15 09:49:13;;;;;;;10.98;8.63;;;;;;;15.87;50.40;102655.09;5022331;28;20110;-86
2022/04/15 09:51:55;;;;;;;10.35;8.48;;;;;;;15.53;51.44;102649.41;5027774;28;20037;-87
2022/04/15 09:54:24;;;;;;;13.85;9.20;;;;;;;15.47;52.25;102655.03;5013590;28;20145;-87
2022/04/15 09:56:51;;;;;;;12.95;10.05;;;;;;;15.48;51.53;102655.00;5024076;28;20061;-87
2022/04/15 09:59:21;;;;;;;11.43;9.27;;;;;;;16.49;50.38;102645.09;5022168;28;20021;-86
2022/04/15 10:01:50;;;;;;;9.02;8.13;;;;;;;18.43;45.89;102650.47;5023470;28;20030;-86
2022/04/15 10:04:18;;;;;;;9.85;7.90;;;;;;;18.38;44.67;102648.03;5027331;28;20167;-86
2022/04/15 10:06:43;;;;;;;9.52;7.88;;;;;;;19.06;42.89;102641.53;5014642;28;20026;-87
2022/04/15 10:09:14;;;;;;;10.07;7.57;;;;;;;19.94;42.12;102642.59;5023829;28;20014;-87
2022/04/15 10:11:43;;;;;;;8.98;7.30;;;;;;;19.63;41.46;102649.88;5015923;28;20076;-87
2022/04/15 10:14:14;;;;;;;9.57;8.32;;;;;;;18.90;42.61;102638.88;5025829;28;20028;-86
2022/04/15 10:16:42;;;;;;;9.43;8.27;;;;;;;19.53;41.29;102651.38;5017178;28;20107;-86
2022/04/15 10:19:08;;;;;;;11.02;8.20;;;;;;;20.48;39.32;102638.25;5019855;28;20029;-86
2022/04/15 10:21:37;;;;;;;8.02;7.22;;;;;;;20.73;38.05;102640.25;5020441;28;20025;-86
2022/04/15 10:24:03;;;;;;;9.85;8.13;;;;;;;20.27;39.01;102643.16;5013464;28;20030;-86
2022/04/15 10:26:34;;;;;;;11.18;7.45;;;;;;;21.14;38.48;102632.09;5029384;28;20009;-87
2022/04/15 10:29:03;;;;;;;8.82;6.82;;;;;;;22.57;34.60;102638.38;5021981;28;20520;-86
2022/04/15 10:31:48;;;;;;;10.05;6.78;;;;;;;23.16;34.36;102635.81;5027068;28;20071;-87
2022/04/15 10:34:16;;;;;;;8.57;6.90;;;;;;;23.33;32.97;102635.38;5013078;28;20026;-86
2022/04/15 10:36:44;;;;;;;8.98;7.07;;;;;;;24.44;32.01;102641.16;5026054;28;20025;-86
2022/04/15 10:39:11;;;;;;;7.47;6.50;;;;;;;25.45;29.94;102624.53;5022247;28;20946;-86
2022/04/15 10:41:42;;;;;;;6.40;5.80;;;;;;;25.86;30.57;102633.72;5027065;28;20510;-87
2022/04/15 10:44:24;;;;;;;7.05;6.32;;;;;;;24.69;32.42;102622.81;5012344;28;20036;-87
2022/04/15 10:46:49;;;;;;;7.20;6.32;;;;;;;22.26;34.10;102637.91;5023323;28;20607;-87
2022/04/15 10:49:23;;;;;;;7.07;6.35;;;;;;;22.80;34.77;102628.53;5026241;28;20033;-87
2022/04/15 10:51:57;;;;;;;9.05;6.82;;;;;;;22.52;33.38;102624.28;5023060;28;20281;-87
2022/04/15 10:54:41;;;;;;;7.22;6.32;;;;;;;22.96;34.23;102614.72;5010049;28;20380;-88
2022/04/15 10:57:15;;;;;;;6.93;6.32;;;;;;;23.73;33.12;102623.28;5016892;28;20033;-87
2022/04/15 11:02:48;;;;;;;7.30;6.43;;;;;;;26.57;29.06;102623.72;5019142;28;20497;-87
2022/04/15 11:05:35;;;;;;;7.03;6.32;;;;;;;27.21;29.20;102624.25;5019283;28;20128;-87
2022/04/15 11:08:11;;;;;;;6.80;5.78;;;;;;;26.69;29.28;102624.47;5024549;28;20083;-87
2022/04/15 11:10:40;;;;;;;6.75;6.05;;;;;;;25.56;28.80;102627.19;5014473;28;20368;-87
2022/04/15 11:13:06;;;;;;;8.27;6.43;;;;;;;25.06;29.55;102623.31;5027744;28;20069;-86
2022/04/15 11:15:57;;;;;;;6.50;5.78;;;;;;;24.68;32.40;102626.53;5027625;28;20033;-87
2022/04/15 11:18:24;;;;;;;6.82;6.13;;;;;;;24.69;29.90;102620.09;5023176;28;20029;-87
2022/04/15 11:20:49;;;;;;;6.93;6.22;;;;;;;24.10;30.30;102622.09;5026871;28;20223;-86
2022/04/15 11:23:15;;;;;;;7.00;6.30;;;;;;;24.11;30.70;102622.94;5018373;28;20037;-87